createdAt,value
2023-01-23T00:00:20.036Z,100603.59
2023-01-23T00:04:36.100Z,100595.88
2023-01-23T00:08:48.724Z,100594.06
2023-01-23T00:13:03.750Z,100590.66
2023-01-23T00:17:07.856Z,100598.09
2023-01-23T00:21:18.070Z,100595.41
2023-01-23T00:25:25.387Z,100574.31
2023-01-23T00:29:29.511Z,100597.72
2023-01-23T00:33:34.382Z,100586.66
2023-01-23T00:37:42.275Z,100591.47
2023-01-23T00:41:49.451Z,100577.06
2023-01-23T00:46:02.958Z,100586.28
2023-01-23T00:50:09.984Z,100587.69
2023-01-23T00:54:27.535Z,100585.88
2023-01-23T00:58:31.220Z,100598.38
2023-01-23T01:02:39.159Z,100594.00
2023-01-23T01:06:45.696Z,100605.03
2023-01-23T01:11:05.992Z,100596.91
2023-01-23T01:15:12.510Z,100590.88
2023-01-23T01:19:18.188Z,100611.00
2023-01-23T01:23:31.490Z,100606.41
2023-01-23T01:27:37.169Z,100615.13
2023-01-23T01:31:43.019Z,100610.94
2023-01-23T01:35:51.709Z,100610.13
2023-01-23T01:40:10.503Z,100598.31
2023-01-23T01:44:21.828Z,100606.19
2023-01-23T01:48:28.199Z,100608.13
2023-01-23T01:52:33.223Z,100615.03
2023-01-23T01:56:41.573Z,100593.25
2023-01-23T02:00:48.886Z,100609.63
2023-01-23T02:05:07.152Z,100619.66
2023-01-23T02:09:22.136Z,100612.72
2023-01-23T02:13:33.018Z,100617.78
2023-01-23T02:17:39.256Z,100626.06
2023-01-23T02:21:45.822Z,100615.81
2023-01-23T02:26:01.213Z,100617.88
2023-01-23T02:30:08.301Z,100616.00
2023-01-23T02:34:23.185Z,100604.09
2023-01-23T02:38:44.379Z,100613.13
2023-01-23T02:42:53.279Z,100616.09
2023-01-23T02:47:12.949Z,100616.47
2023-01-23T02:51:18.199Z,100625.66
2023-01-23T02:55:23.292Z,100632.19
2023-01-23T03:00:10.289Z,100631.84
2023-01-23T03:04:15.955Z,100630.50
2023-01-23T03:08:27.475Z,100644.94
2023-01-23T03:12:34.661Z,100640.31
2023-01-23T03:16:51.332Z,100639.22
2023-01-23T03:20:56.114Z,100637.63
2023-01-23T03:25:08.407Z,100641.47
2023-01-23T03:29:35.968Z,100644.06
2023-01-23T03:33:46.556Z,100638.59
2023-01-23T03:37:55.354Z,100643.97
2023-01-23T03:41:58.919Z,100636.00
2023-01-23T03:46:08.451Z,100639.91
2023-01-23T03:50:14.391Z,100637.94
2023-01-23T03:54:20.581Z,100632.69
2023-01-23T03:58:25.002Z,100628.66
2023-01-23T04:02:31.089Z,100625.09
2023-01-23T04:06:41.251Z,100624.66
2023-01-23T04:10:47.110Z,100629.41
2023-01-23T04:14:57.494Z,100626.16
2023-01-23T04:19:03.068Z,100633.50
2023-01-23T04:23:11.160Z,100640.53
2023-01-23T04:27:18.581Z,100643.03
2023-01-23T04:31:32.409Z,100645.16
2023-01-23T04:35:42.567Z,100640.25
2023-01-23T04:40:08.332Z,100644.19
2023-01-23T04:44:27.809Z,100643.41
2023-01-23T04:48:40.972Z,100630.22
2023-01-23T04:52:47.783Z,100641.16
2023-01-23T04:56:58.729Z,100631.13
2023-01-23T05:01:12.832Z,100632.81
2023-01-23T05:05:30.484Z,100635.28
2023-01-23T05:09:36.806Z,100636.78
2023-01-23T05:13:48.244Z,100624.50
2023-01-23T05:17:58.259Z,100617.59
2023-01-23T05:22:03.122Z,100626.91
2023-01-23T05:26:07.628Z,100627.41
2023-01-23T05:30:20.793Z,100642.16
2023-01-23T05:34:27.848Z,100649.09
2023-01-23T05:38:34.283Z,100644.06
2023-01-23T05:42:38.162Z,100641.16
2023-01-23T05:46:59.762Z,100650.81
2023-01-23T05:51:07.572Z,100664.06
2023-01-23T05:55:17.975Z,100666.16
2023-01-23T05:59:25.466Z,100660.44
2023-01-23T06:03:37.565Z,100655.53
2023-01-23T06:07:47.182Z,100666.47
2023-01-23T06:11:55.338Z,100663.56
2023-01-23T06:16:01.000Z,100670.47
2023-01-23T06:20:14.926Z,100675.88
2023-01-23T06:24:23.027Z,100677.22
2023-01-23T06:28:29.090Z,100688.16
2023-01-23T06:32:39.713Z,100690.22
2023-01-23T06:41:08.163Z,100704.59
2023-01-23T06:45:14.021Z,100697.88
2023-01-23T06:49:20.524Z,100695.09
2023-01-23T06:53:27.881Z,100699.63
2023-01-23T06:57:37.070Z,100700.66
2023-01-23T07:01:42.777Z,100698.19
2023-01-23T07:05:47.445Z,100704.03
2023-01-23T07:09:53.737Z,100704.50
2023-01-23T07:13:56.916Z,100709.44
2023-01-23T07:18:00.003Z,100704.50
2023-01-23T07:22:03.553Z,100731.53
2023-01-23T07:26:09.792Z,100737.84
2023-01-23T07:30:14.185Z,100740.00
2023-01-23T07:34:16.894Z,100731.69
2023-01-23T07:38:19.623Z,100747.34
2023-01-23T07:42:24.185Z,100757.56
2023-01-23T07:46:30.338Z,100756.16
2023-01-23T07:50:33.037Z,100761.69
2023-01-23T07:54:40.031Z,100766.13
2023-01-23T07:58:45.458Z,100765.88
2023-01-23T08:02:48.557Z,100738.34
2023-01-23T08:06:57.337Z,100769.78
2023-01-23T08:11:00.075Z,100780.81
2023-01-23T08:15:04.606Z,100788.53
2023-01-23T08:19:07.661Z,100783.81
2023-01-23T08:23:12.659Z,100780.94
2023-01-23T08:27:15.465Z,100788.75
2023-01-23T08:31:19.869Z,100797.63
2023-01-23T08:35:29.092Z,100796.22
2023-01-23T08:39:35.390Z,100795.00
2023-01-23T08:43:38.644Z,100787.78
2023-01-23T08:47:42.922Z,100797.03
2023-01-23T08:51:50.824Z,100800.97
2023-01-23T08:55:53.588Z,100806.56
2023-01-23T08:59:56.628Z,100798.41
2023-01-23T09:04:00.741Z,100774.66
2023-01-23T09:08:06.393Z,100776.00
2023-01-23T09:12:09.238Z,100776.06
2023-01-23T09:16:16.037Z,100782.00
2023-01-23T09:20:21.923Z,100778.69
2023-01-23T09:24:26.226Z,100785.00
2023-01-23T09:28:32.429Z,100783.81
2023-01-23T09:32:35.088Z,100795.94
2023-01-23T09:36:43.190Z,100787.28
2023-01-23T09:40:51.683Z,100786.97
2023-01-23T09:44:59.438Z,100786.47
2023-01-23T09:49:05.609Z,100792.38
2023-01-23T09:53:21.564Z,100794.97
2023-01-23T09:57:45.793Z,100793.16
2023-01-23T10:01:52.410Z,100805.25
2023-01-23T10:06:05.447Z,100798.53
2023-01-23T10:10:35.325Z,100790.25
2023-01-23T10:14:51.468Z,100787.03
2023-01-23T10:19:03.581Z,100790.53
2023-01-23T10:23:12.868Z,100776.94
2023-01-23T10:27:21.117Z,100759.06
2023-01-23T10:31:36.945Z,100776.81
2023-01-23T10:35:42.982Z,100713.56
2023-01-23T10:39:50.819Z,100771.50
2023-01-23T10:43:56.994Z,100775.44
2023-01-23T10:47:59.950Z,100780.97
2023-01-23T10:52:04.398Z,100780.38
2023-01-23T10:56:15.981Z,100774.38
2023-01-23T11:00:27.787Z,100772.66
2023-01-23T11:04:34.567Z,100766.66
2023-01-23T11:08:41.792Z,100762.69
2023-01-23T11:12:52.929Z,100758.16
2023-01-23T11:17:13.571Z,100748.88
2023-01-23T11:21:24.315Z,100736.00
2023-01-23T11:25:33.613Z,100739.63
2023-01-23T11:29:55.484Z,100732.94
2023-01-23T11:34:15.495Z,100740.75
2023-01-23T11:38:30.644Z,100733.25
2023-01-23T11:42:48.997Z,100739.38
2023-01-23T11:47:14.664Z,100745.69
2023-01-23T11:51:26.418Z,100735.56
2023-01-23T11:55:57.071Z,100737.72
2023-01-23T12:00:19.326Z,100734.88
2023-01-23T12:05:07.505Z,100733.44
2023-01-23T12:09:17.598Z,100736.16
2023-01-23T12:13:37.064Z,100737.63
2023-01-23T12:17:46.101Z,100736.97
2023-01-23T12:22:02.070Z,100740.09
2023-01-23T12:26:21.106Z,100739.25
2023-01-23T12:30:51.108Z,100725.72
2023-01-23T12:35:18.802Z,100727.72
2023-01-23T12:39:39.523Z,100727.84
2023-01-23T12:43:48.547Z,100729.13
2023-01-23T12:47:56.913Z,100731.84
2023-01-23T12:52:02.591Z,100733.78
2023-01-23T12:56:09.515Z,100718.75
2023-01-23T13:00:31.109Z,100737.22
2023-01-23T13:04:58.627Z,100710.22
2023-01-23T13:09:17.469Z,100723.09
2023-01-23T13:13:28.209Z,100696.59
2023-01-23T13:17:37.629Z,100722.50
2023-01-23T13:21:58.309Z,100724.59
2023-01-23T13:26:30.182Z,100711.03
2023-01-23T13:31:01.104Z,100719.38
2023-01-23T13:35:53.031Z,100709.16
2023-01-23T13:40:06.713Z,100712.38
2023-01-23T13:44:21.367Z,100720.44
2023-01-23T14:20:47.962Z,100719.53
2023-01-23T14:25:01.861Z,100704.41
2023-01-23T14:29:28.963Z,100729.78
2023-01-23T14:33:41.656Z,100721.22
2023-01-23T14:37:44.761Z,100719.59
2023-01-23T14:41:49.117Z,100719.59
2023-01-23T14:45:59.491Z,100723.47
2023-01-23T14:50:03.159Z,100718.25
2023-01-23T14:54:10.398Z,100723.53
2023-01-23T14:58:28.517Z,100683.28
2023-01-23T15:02:35.863Z,100671.69
2023-01-23T15:06:39.133Z,100671.25
2023-01-23T15:10:46.613Z,100721.16
2023-01-23T15:14:54.166Z,100724.28
2023-01-23T15:19:02.875Z,100728.69
2023-01-23T15:23:24.358Z,100729.94
2023-01-23T15:27:29.011Z,100695.81
2023-01-23T15:31:35.760Z,100742.00
2023-01-23T15:35:40.292Z,100729.28
2023-01-23T15:39:51.124Z,100741.25
2023-01-23T15:43:54.087Z,100731.31
2023-01-23T15:47:56.950Z,100746.06
2023-01-23T15:52:02.916Z,100729.31
2023-01-23T15:56:06.939Z,100728.19
2023-01-23T16:00:16.307Z,100698.72
2023-01-23T16:04:19.059Z,100741.28
2023-01-23T16:08:31.298Z,100747.16
2023-01-23T16:12:35.552Z,100741.28
2023-01-23T16:16:38.662Z,100749.38
2023-01-23T16:20:44.283Z,100731.69
2023-01-23T16:24:48.525Z,100725.16
2023-01-23T16:28:55.366Z,100746.22
2023-01-23T16:33:00.027Z,100740.50
2023-01-23T16:37:03.966Z,100737.81
2023-01-23T16:41:10.677Z,100738.84
2023-01-23T16:45:17.918Z,100741.88
2023-01-23T16:49:21.712Z,100736.16
2023-01-23T16:53:26.220Z,100742.00
2023-01-23T16:57:30.472Z,100720.00
2023-01-23T17:01:35.277Z,100745.00
2023-01-23T17:05:38.728Z,100721.78
2023-01-23T17:09:42.221Z,100733.03
2023-01-23T17:13:47.213Z,100737.53
2023-01-23T17:17:51.593Z,100730.59
2023-01-23T17:21:55.233Z,100730.94
2023-01-23T17:26:01.160Z,100727.06
2023-01-23T17:30:09.956Z,100727.16
2023-01-23T17:34:20.565Z,100745.94
2023-01-23T17:38:26.632Z,100748.09
2023-01-23T17:42:32.304Z,100734.13
2023-01-23T17:46:39.602Z,100744.97
2023-01-23T17:50:44.619Z,100725.94
2023-01-23T17:54:47.926Z,100745.72
2023-01-23T17:58:51.425Z,100754.34
2023-01-23T18:03:00.949Z,100755.56
2023-01-23T18:07:04.594Z,100761.03
2023-01-23T18:11:25.039Z,100748.91
2023-01-23T18:15:33.345Z,100745.38
2023-01-23T18:19:42.799Z,100746.03
2023-01-23T18:23:47.312Z,100742.16
2023-01-23T18:27:55.354Z,100724.41
2023-01-23T18:32:15.415Z,100721.84
2023-01-23T18:36:50.220Z,100731.19
2023-01-23T18:41:07.849Z,100736.16
2023-01-23T18:45:15.007Z,100739.19
2023-01-23T18:49:32.886Z,100736.19
2023-01-23T18:53:48.445Z,100737.63
2023-01-23T18:58:09.041Z,100735.31
2023-01-23T19:02:42.859Z,100727.69
2023-01-23T19:06:47.205Z,100731.47
2023-01-23T19:11:09.132Z,100723.59
2023-01-23T19:15:24.603Z,100733.31
2023-01-23T19:19:32.322Z,100737.63
2023-01-23T19:23:46.457Z,100733.09
2023-01-23T19:27:56.535Z,100739.47
2023-01-23T19:32:05.911Z,100736.97
2023-01-23T19:36:15.739Z,100743.22
2023-01-23T19:40:22.985Z,100745.53
2023-01-23T19:44:30.277Z,100728.91
2023-01-23T19:48:36.034Z,100742.81
2023-01-23T19:52:42.774Z,100761.16
2023-01-23T19:57:03.129Z,100758.59
2023-01-23T20:01:43.416Z,100769.13
2023-01-23T20:10:26.224Z,100772.59
2023-01-23T20:14:31.999Z,100731.78
2023-01-23T20:18:40.453Z,100784.16
2023-01-23T20:22:51.329Z,100792.47
2023-01-23T20:26:57.612Z,100793.19
2023-01-23T20:31:12.782Z,100797.72
2023-01-23T20:35:30.837Z,100795.97
2023-01-23T20:39:35.018Z,100780.22
2023-01-23T20:43:39.982Z,100795.38
2023-01-23T20:47:53.328Z,100808.94
2023-01-23T20:52:20.077Z,100788.66
2023-01-23T20:56:30.863Z,100821.47
2023-01-23T21:00:33.751Z,100820.72
2023-01-23T21:04:40.208Z,100809.13
2023-01-23T21:08:54.187Z,100807.97
2023-01-23T21:13:04.438Z,100815.25
2023-01-23T21:17:12.131Z,100818.22
2023-01-23T21:21:34.309Z,100807.28
2023-01-23T21:25:43.088Z,100810.56
2023-01-23T21:29:54.535Z,100815.47
2023-01-23T21:34:06.135Z,100819.59
2023-01-23T21:38:21.223Z,100802.47
2023-01-23T21:42:33.263Z,100825.09
2023-01-23T21:46:41.059Z,100824.91
2023-01-23T21:50:54.384Z,100823.41
2023-01-23T21:55:16.444Z,100824.75
2023-01-23T21:59:25.142Z,100820.78
2023-01-23T22:03:51.205Z,100830.53
2023-01-23T22:08:02.675Z,100829.28
2023-01-23T22:12:16.129Z,100827.78
2023-01-23T22:16:31.925Z,100825.31
2023-01-23T22:20:44.499Z,100844.63
2023-01-23T22:24:48.510Z,100822.91
2023-01-23T22:28:52.767Z,100826.44
2023-01-23T22:33:01.199Z,100831.38
2023-01-23T22:37:11.669Z,100820.28
2023-01-23T22:41:21.225Z,100818.75
2023-01-23T22:45:28.632Z,100836.06
2023-01-23T22:49:41.602Z,100835.59
2023-01-23T22:53:46.346Z,100841.84
2023-01-23T22:57:53.948Z,100839.25
2023-01-23T23:01:57.873Z,100832.47
2023-01-23T23:06:17.961Z,100841.63
2023-01-23T23:10:22.408Z,100837.97
2023-01-23T23:14:35.969Z,100827.63
2023-01-23T23:18:43.072Z,100833.81
2023-01-23T23:22:51.690Z,100837.56
2023-01-23T23:26:56.181Z,100833.38
2023-01-23T23:31:04.730Z,100834.06
2023-01-23T23:35:10.311Z,100838.53
2023-01-23T23:39:15.177Z,100825.41
2023-01-23T23:43:19.795Z,100834.72
2023-01-23T23:47:25.792Z,100835.31
2023-01-23T23:51:34.464Z,100829.19
2023-01-23T23:55:42.951Z,100831.28
2023-01-23T23:59:47.196Z,100824.44
